Taylorville, IL (62568)

3:31 PM CDT on September 01, 2014 (GMT -0500)
RURAL KINCAID IL USA | Change Station
CLOSE
Current Station
Personal Weather Station
Location: PAWNEE, IL
Elevation: 610 ft
Nearby Weather Stations

Elev 610 ft 39.57 °N, 89.43 °W | Updated 1 minute ago

Scattered Clouds
Scattered Clouds
82.9 °F
Feels Like 84 °F
N
8.0
Wind Variable Wind from WSW
Gusts 9.0 mph

Today
High -- | Low -- °F
--% Chance of Precip.
Yesterday
High -- | Low -- °F
Precip. -- in
6:25 AM 7:28 PM
Waxing Crescent, 44% visible
Pressure 29.88 in
Visibility 10.0 miles
Clouds Scattered Clouds 4000 ft
Scattered Clouds 5000 ft
Heat Index 84 °F
Dew Point 62 °F
Humidity 50%
Rainfall 0.00 in
Snow Depth Not available.
UV 5 out of 12
Pollen 9.70 out of 12
Ozone Good
Flu Activity Not available.
METAR KTAZ 012015Z AUTO 25010G15KT 10SM SCT040 SCT050 26/18 A2988 RMK AO2

More Conditions Fewer Conditions

Pressure 29.88 in
Visibility 10.0 miles
Clouds Scattered Clouds 4000 ft
Scattered Clouds 5000 ft
Heat Index 84 °F
Dew Point 62 °F
Humidity 50%
Rainfall 0.00 in
Snow Depth Not available.
UV 5 out of 12
Pollen 9.70 out of 12
Ozone Good
Flu Activity Not available.
METAR KTAZ 012015Z AUTO 25010G15KT 10SM SCT040 SCT050 26/18 A2988 RMK AO2

More Conditions Fewer Conditions

10-Day Weather Forecast

Almanac

Astronomy

Sep. 01, 2014 Rise Set
Actual Time 6:25 AM CDT 7:28 PM CDT
Civil Twilight 5:57 AM CDT 7:55 PM CDT
Nautical Twilight 5:25 AM CDT 8:28 PM CDT
Astronomical Twilight 4:50 AM CDT 9:02 PM CDT
Moon 1:09 PM CDT 11:31 PM CDT
Length of Visible Light 13h 57m
Length of Day
13h 02m
Tomorrow will be 2m 28s shorter.
Waxing Crescent, 44% of the Moon is Illuminated
Today
Waxing Crescent
Sep 2
First Quarter
Sep 8
Full
Sep 15
Last Quarter
Sep 24
New

Today's Extremes

State Highs State Lows

Community

WunderPhotos

Upload Photos

1,749,398 photos uploaded!

WunderBlogs® & News

Nearby

Air Quality

  Air Quality AQ Index Pollutant
Yesterday Moderate
PM2.5
Yesterday Good
OZONE
Current Good
OZONE
Monday Moderate
PM2.5
Tuesday Good
PM2.5

Snow Depth

Station Depth Elevation
No new snow has been reported.

Earthquake Activity

City Distance Mag. Time & Date
No recent earthquake activity has been reported nearby.
Minimum magnitude displayed is 2.5.

Coastal Water Temperatures

Place Temperature
No Stations Reporting

Nearby Weather Stations